Arizona State University, AZ

5:42 PM MST on April 26, 2015 (GMT -0700)
Down Stream Dam | | Change Station
CLOSE
Current Station
Personal Weather Station
Location: Tempe, AZ
Elevation: 1122 ft
Nearby Weather Stations

Elev 1122 ft 33.43 °N, 111.95 °W | Updated 1 minute ago

Overcast
Overcast
65.3 °F
Feels Like 65.3 °F
N
3.0
Wind Variable Wind from NW
Gusts 5.0 mph

Today
High -- | Low -- °F
--% Chance of Precip.
Yesterday
High -- | Low -- °F
Precip. -- in
5:44 AM 7:06 PM
First Quarter, 60% visible
Pressure 29.76 in
Visibility 10.0 miles
Clouds Few 5000 ft
Mostly Cloudy 7000 ft
Mostly Cloudy 9500 ft
Dew Point 49 °F
Humidity 55%
Rainfall 0.09 in
Snow Depth Not available.
UV 1 out of 12
Pollen 5.20 out of 12
Air Quality Not available.
Flu Activity Local Activity
METAR KPHX 262351Z 05014KT 10SM FEW050 BKN070 BKN095 20/07 A2979 RMK AO2 WSHFT 2255 RAB11E31 SLP077 SHRA DSNT NE P0000 60000 T02000072 10239 20189 55002

More Conditions Fewer Conditions

Pressure 29.76 in
Visibility 10.0 miles
Clouds Few 5000 ft
Mostly Cloudy 7000 ft
Mostly Cloudy 9500 ft
Dew Point 49 °F
Humidity 55%
Rainfall 0.09 in
Snow Depth Not available.
UV 1 out of 12
Pollen 5.20 out of 12
Air Quality Not available.
Flu Activity Local Activity
METAR KPHX 262351Z 05014KT 10SM FEW050 BKN070 BKN095 20/07 A2979 RMK AO2 WSHFT 2255 RAB11E31 SLP077 SHRA DSNT NE P0000 60000 T02000072 10239 20189 55002

More Conditions Fewer Conditions

The full scope of the disaster following a powerful 7.8-magnitude earthquake in Nepal may not come into view for days, but global charities are already sending emergency aid. Click to see how you can help.

10-Day Weather Forecast

Almanac

Astronomy

Apr. 26, 2015 Rise Set
Actual Time
Civil Twilight
Nautical Twilight
Astronomical Twilight
Moon
Length of Visible Light
Length of Day
Tomorrow will be .
, % of the Moon is Illuminated

Today's Extremes

State Highs State Lows

Community

WunderPhotos

Upload Photos

1,817,184 photos uploaded!

WunderBlogs® & News

Nearby

Air Quality

  Air Quality AQ Index Pollutant
Not available.

Snow Depth

Station Depth Elevation

Earthquake Activity

City Distance Mag. Time & Date
Minimum magnitude displayed is 2.5.

Coastal Water Temperatures

Place Temperature

Stations

Nearby Weather Stations

Station Location Temp. Windchill Dew Point Humidity Wind Precip. Elev Updated Type